메인 페이지
METAR-TAF:

METAR-TAF

공항 :

토론토 피어슨 국제공항

토론토, 온타리오, 캐나다

위도: 43-40N, 경도: 079-38W, 고도: 173m

현재 날씨관측

예보는 32분 전, 01:00시(UTC)에 발표되었습니다.
북서11kt
온도 -9°C
습도 52%
기압 1026 hPa
시정: 24.1km
고도 3000ft 상공 구름 조금

METAR: CYYZ 170100Z 32011KT 15SM FEW030 M09/M17 A3031 RMK SC1 SC TR SLP276

시각: 20:32 (01:32 UTC)

예보

예보는 1 시간 54분 전, 23:38시(UTC)에 발표되었습니다.
예보 대상 시간: 17일 00시부터 18일 06시까지 (UTC)
북북서12kt
시정: 10km
고도 3000ft 상공 구름 조금
전환 중
17일 01시부터 17일 03시까지 (UTC)
서북서8kt
17일 0500시부터 (UTC)
북북서5kt
시정: 10km
맑음
17일 1600시부터 (UTC)
북동5kt
시정: 10km
고도 12000ft 상공 구름 많음
고도 18000ft 상공 구름 많음
17일 2200시부터 (UTC)
북동5kt
시정: 10km
고도 3000ft 상공 구름 많음
고도 8000ft 상공 흐림
18일 0100시부터 (UTC)
여러 방향의 바람 3kt
시정: 6.4km
고도 2000ft 상공 흐림
약한눈
18일 0400시부터 (UTC)
여러 방향의 바람 3kt
시정: 3.2km
고도 1200ft 상공 흐림
약한눈

TAF: CYYZ 162338Z 1700/1806 33012KT P6SM FEW030 BECMG 1701/1703 30008KT FM170500 34005KT P6SM SKC FM171600 05005KT P6SM BKN120 BKN180 FM172200 05005KT P6SM BKN030 OVC080 FM180100 VRB03KT 4SM -SN OVC020 FM180400 VRB03KT 2SM -SN OVC012 RMK NXT FCST BY 170300Z

4,000개 이상의 공항 관측 자료 및 예보 (METAR 및 TAF 보고).

지도상에서 검색 가능한 기상관측소가 노란 점과 빨간 점으로 표시되어 있습니다.

기상관측소 명을 보려면 표시 위로 마우스를 이동하세요.

날씨 관측과 예보를 보려면 클릭하세요.

지도 변경 : 확대하려면 엑스 표시가 있는 녹색 버튼, 축소하려면 빼기 표시가 있는 녹색 버튼, 다음 페이지의 지도를 보려면 녹색 화살표를 클릭하세요.


METAR-TAF: